Etusivu
METAR-TAF:

METAR-TAF

Lentoasemat :

Kosrae, Mikronesia

Leveyspiiri: 05-21N, Pituuspiiri: 162-57E, korkeus merenpinnasta: 3 m

Tämänhetkinen sää

Tämä raportti tehtiin 6 tuntia ja 27 minuuttia sitten, kello 08.54 UTC
Tuuli 3 kn eri suunnista
Lämpötila 29°C
Kosteus 84%
Ilmanpaine 1009 hPa
Näkyvyys: 16.1 km
Hajonneita pilviä 1700 ft:n korkeudessa, Cumulonimbus.
Hajonneita pilviä 13000 ft:n korkeudessa
Hajonneita pilviä 30000 ft:n korkeudessa

METAR: PTSA 120854Z VRB03KT 10SM BKN017CB BKN130 BKN300 29/26 A2980 RMK CB SW MOV W LAST

Aika: 02:21 (15:21 UTC)

Sääennuste

Tämä raportti tehtiin 9 tuntia ja 56 minuuttia sitten, kello 05.25 UTC
Ennuste voimassa 12. päivästä klo 06 UTC - 13. päivään klo 06 UTC
Tuuli 8 kn idästä
Näkyvyys: 10 km
Hajonneita pilviä 2000 ft:n korkeudessa
Hajonneita pilviä 13000 ft:n korkeudessa
sadekuuroja näköpiirissä,

TAF: PTSA 120525Z 1206/1306 08008KT P6SM VCSH BKN020 BKN130

Säähavainnot ja -ennusteet yli 4000 lentoasemalta (METAR- ja TAF-raportit).

Käytössä olevat sääasemat on merkitty karttaan keltaisilla ja punaisilla pisteillä.

Aseta hiiri pisteen päälle nähdäksesi sääaseman nimen.

Klikkaa sitten nähdäksesi säähavainnot ja -ennusteet.

Kartan vaihtaminen: klikkaa mustalla rastilla varustettuja vihreitä pisteitä, niin voit zoomata sisään; viivalla varustettua vihreää pistettä, niin voit zoomata ulos tai vihreitä nuolia, niin pääset viereisille kartoille.


METAR-TAF: